W2MMD-13 Weather Reports


Display with metric or nautical units.
time (UTC)temp
F
wind
direction
speed
MPH
gust
MPH
rain 1hr
in
rain 24hr
in
rain mn
in
humidity
%
barometer
mb
20210615080129 64 360 2.0 5.0 0.01 0.00 0.00 96 1003.4
20210615074629 64 338 0.0 0.0 0.01 0.00 0.00 96 1003.1
20210615074130 64 360 0.0 0.0 0.01 0.00 0.00 96 1003.2
20210615073628 64 360 1.0 2.0 0.01 0.00 0.00 96 1003.2
20210615073128 64 338 4.0 7.0 0.01 0.00 0.00 96 1003.1
20210615072631 64 203 0.0 1.0 0.01 0.00 0.00 96 1003.4
20210615071628 64 360 3.0 5.0 0.01 0.00 0.00 96 1003.3
20210615071128 64 338 5.0 12.0 0.01 0.00 0.00 96 1003.3
20210615070631 65 360 4.0 10.0 0.01 0.00 0.00 96 1003.6
20210615065631 65 338 8.0 16.0 0.01 0.00 0.00 96 1003.2
20210615065132 65 360 4.0 10.0 0.01 0.00 0.00 96 1003.6
20210615064630 65 360 5.0 9.0 0.01 0.00 0.00 96 1003.9
20210615063130 65 360 0.0 4.0 0.01 0.00 0.00 96 1004.2
20210615062630 65 360 4.0 6.0 0.01 0.00 0.00 96 1004.1
20210615062129 65 360 1.0 4.0 0.01 0.00 0.00 96 1004.2
20210615061629 65 360 0.0 0.0 0.01 0.00 0.00 96 1004.2
20210615061132 65 203 2.0 4.0 0.01 0.00 0.00 96 1004.3
20210615060634 65 203 4.0 6.0 0.01 0.00 0.00 96 1004.3
20210615060131 65 360 3.0 5.0 0.01 0.00 0.00 96 1004.4
20210615055629 65 360 2.0 19.0 0.01 0.00 0.00 96 1004.6
20210615055130 65 360 4.0 10.0 0.01 0.00 0.00 96 1004.4
20210615054631 65 360 6.0 10.0 0.01 0.00 0.00 96 1004.4
20210615054128 66 360 5.0 13.0 0.01 0.00 0.00 96 1004.6
20210615053630 66 360 6.0 11.0 0.01 0.00 0.00 96 1004.7
20210615053129 66 360 5.0 10.0 0.01 0.00 0.00 96 1004.7
20210615052631 66 360 4.0 9.0 0.01 0.00 0.00 96 1004.7
20210615052128 66 203 4.0 8.0 0.01 0.00 0.00 96 1004.8
20210615051629 66 360 5.0 8.0 0.01 0.00 0.00 96 1005.0
20210615051131 66 360 8.0 14.0 0.01 0.00 0.00 96 1005.1
20210615050631 66 360 6.0 17.0 0.01 0.00 0.00 96 1005.2
20210615050129 65 360 9.0 18.0 0.01 0.00 0.00 96 1005.4
20210615045629 65 203 7.0 11.0 0.01 0.00 0.00 96 1005.3
20210615045131 66 360 9.0 14.0 0.01 0.00 0.00 96 1005.3
20210615044134 66 360 0.0 1.0 0.00 0.00 0.00 96 1005.9
20210615043629 67 360 8.0 16.0 0.00 0.00 0.00 96 1006.1
20210615043128 67 360 14.0 27.0 0.00 0.00 0.00 96 1005.9
20210615042822 67 360 12.0 23.0 0.00 0.00 0.00 96 1005.5
20210615042628 67 360 12.0 23.0 0.00 0.00 0.00 96 1005.5
20210615042318 67 360 5.0 10.0 0.00 0.00 0.00 96 1005.0
20210615042129 67 360 5.0 10.0 0.00 0.00 0.00 96 1005.0
20210615041705 67 203 8.0 13.0 0.00 0.00 0.00 96 1004.5
20210615041630 67 203 8.0 13.0 0.00 0.00 0.00 96 1004.5
20210615041130 67 360 5.0 10.0 0.00 0.00 0.00 96 1004.3
20210615040629 67 360 4.0 7.0 0.00 0.00 0.00 96 1004.3
20210615040129 67 360 2.0 5.0 0.00 0.00 0.00 96 1004.3
20210615035630 67 360 3.0 7.0 0.00 0.00 0.00 96 1004.1
20210615035130 67 203 2.0 6.0 0.00 0.00 0.00 96 1004.1
20210615034629 67 360 3.0 9.0 0.00 0.00 0.00 96 1004.0
20210615034131 67 360 0.0 0.0 0.00 0.00 0.00 96 1003.7
20210615033629 67 360 1.0 2.0 0.00 0.00 0.00 96 1003.8
20210615033129 67 360 5.0 11.0 0.00 0.00 0.00 96 1003.8
20210615032629 66 360 5.0 12.0 0.00 0.00 0.00 96 1003.9
20210615032129 66 23 2.0 6.0 0.00 0.00 0.00 96 1004.0
20210615031130 66 338 0.0 2.0 0.00 0.00 0.00 96 1003.9
20210615030631 66 338 3.0 8.0 0.00 0.00 0.00 96 1003.9
20210615030131 66 23 2.0 6.0 0.00 0.00 0.00 96 1004.0
20210615025630 66 338 4.0 11.0 0.00 0.00 0.00 96 1004.2
20210615025611 66 338 3.0 8.0 0.00 0.00 0.00 96 1004.1
20210615025609 66 338 2.0 5.0 0.00 0.00 0.00 96 1004.6
20210615023628 66 225 2.0 6.0 0.00 0.00 0.00 96 1004.5
20210615023129 67 360 2.0 8.0 0.00 0.00 0.00 96 1004.6
20210615022630 67 360 3.0 6.0 0.00 0.00 0.00 96 1004.2
20210615022129 68 360 11.0 28.0 0.00 0.00 0.00 96 1004.3
20210615021630 69 338 7.0 19.0 0.00 0.00 0.00 94 1004.3
20210615021130 69 360 5.0 14.0 0.00 0.00 0.00 93 1004.5
20210615020630 70 338 11.0 28.0 0.00 0.00 0.00 92 1004.3
20210615020129 70 360 10.0 23.0 0.00 0.00 0.00 90 1004.4
20210615015628 71 225 9.0 27.0 0.00 0.00 0.00 88 1004.4
20210615015129 72 360 10.0 25.0 0.00 0.00 0.00 87 1004.6
20210615014628 73 360 20.0 53.0 0.00 0.00 0.00 88 1004.3
20210615014129 74 360 5.0 10.0 0.00 0.00 0.00 93 1003.7
20210615013629 74 203 7.0 13.0 0.00 0.00 0.00 93 1003.4
20210615013130 74 360 6.0 16.0 0.00 0.00 0.00 93 1003.3
20210615012630 74 203 4.0 16.0 0.00 0.00 0.00 93 1003.4
20210615012129 74 203 7.0 15.0 0.00 0.00 0.00 93 1003.1
20210615011628 74 360 9.0 24.0 0.00 0.00 0.00 92 1002.8
20210615011439 75 203 7.0 24.0 0.00 0.00 0.00 91 1002.7
20210615011437 74 360 8.0 16.0 0.00 0.00 0.00 92 1002.6
20210615011435 75 360 13.0 25.0 0.00 0.00 0.00 91 1002.6
20210615005629 75 203 11.0 22.0 0.00 0.00 0.00 91 1002.5
20210615005130 75 360 7.0 20.0 0.00 0.00 0.00 91 1002.7
20210615004130 76 360 5.0 16.0 0.00 0.00 0.00 90 1002.6
20210615003630 76 203 8.0 15.0 0.00 0.00 0.00 90 1002.5
20210615003129 76 203 2.0 5.0 0.00 0.00 0.00 89 1002.5
20210615002630 76 203 9.0 34.0 0.00 0.00 0.00 88 1002.4
20210615002134 76 360 9.0 24.0 0.00 0.00 0.00 88 1002.6
20210615002001 76 360 3.0 9.0 0.00 0.00 0.00 87 1002.6
20210615001959 77 360 6.0 14.0 0.00 0.00 0.00 85 1002.6
20210615000130 77 360 8.0 15.0 0.00 0.00 0.00 84 1002.6
20210614235629 78 360 8.0 17.0 0.00 0.00 0.00 83 1002.7
20210614235155 80 360 9.0 18.0 0.00 0.00 0.00 78 1002.8
20210614235152 78 203 12.0 27.0 0.00 0.00 0.00 82 1002.9
20210614235149 80 360 14.0 37.0 0.00 0.00 0.00 78 1002.9
20210614233131 80 203 6.0 22.0 0.00 0.00 0.00 77 1002.8
20210614232635 82 203 11.0 140.0 0.00 0.00 0.00 74 1002.8
20210614232129 83 360 9.0 18.0 0.00 0.00 0.00 73 1002.9
20210614231628 82 360 8.0 18.0 0.00 0.00 0.00 73 1002.8
20210614231130 83 203 9.0 17.0 0.00 0.00 0.00 72 1002.9
20210614230629 83 203 9.0 22.0 0.00 0.00 0.00 73 1003.0
20210614230132 83 360 9.0 23.0 0.00 0.00 0.00 72 1002.8
20210614225628 83 360 8.0 20.0 0.00 0.00 0.00 71 1002.9
20210614225129 85 203 14.0 25.0 0.00 0.00 0.00 70 1002.9
20210614224629 84 360 10.0 17.0 0.00 0.00 0.00 69 1002.9
20210614224130 85 203 12.0 28.0 0.00 0.00 0.00 67 1002.9
20210614223918 85 360 6.0 11.0 0.00 0.00 0.00 68 1002.9
20210614223916 85 360 8.0 16.0 0.00 0.00 0.00 68 1002.9
20210614222129 85 203 13.0 29.0 0.00 0.00 0.00 67 1003.2
20210614221628 86 203 7.0 17.0 0.00 0.00 0.00 65 1003.2
20210614220630 87 203 16.0 33.0 0.00 0.00 0.00 63 1003.2
20210614220129 86 203 12.0 24.0 0.00 0.00 0.00 63 1003.3
20210614215629 85 360 9.0 25.0 0.00 0.00 0.00 66 1003.3
20210614215129 85 360 14.0 30.0 0.00 0.00 0.00 66 1003.3
20210614214631 86 360 15.0 33.0 0.00 0.00 0.00 65 1003.3
20210614214133 85 203 13.0 28.0 0.00 0.00 0.00 67 1003.4
20210614213629 85 203 13.0 30.0 0.00 0.00 0.00 66 1003.3
20210614213129 84 360 7.0 16.0 0.00 0.00 0.00 68 1003.3
20210614212130 83 203 6.0 11.0 0.00 0.00 0.00 70 1003.4
20210614211630 83 360 9.0 19.0 0.00 0.00 0.00 66 1003.4
20210614211130 86 360 10.0 41.0 0.00 0.00 0.00 63 1003.4
20210614210632 85 203 9.0 16.0 0.00 0.00 0.00 66 1003.4
20210614210131 85 360 9.0 17.0 0.00 0.00 0.00 65 1003.4
20210614205130 86 360 11.0 27.0 0.00 0.00 0.00 63 1003.3
20210614204630 86 360 9.0 19.0 0.00 0.00 0.00 63 1003.3
20210614204131 86 203 6.0 15.0 0.00 0.00 0.00 63 1003.4
20210614203629 85 203 10.0 26.0 0.00 0.00 0.00 64 1003.4
20210614203458 85 360 9.0 18.0 0.00 0.00 0.00 66 1003.7
20210614203129 87 360 18.0 36.0 0.00 0.00 0.00 61 1003.6
20210614202631 85 360 11.0 20.0 0.00 0.00 0.00 63 1003.5
20210614202130 86 203 7.0 22.0 0.00 0.00 0.00 70 1003.7
20210614201629 85 360 9.0 18.0 0.00 0.00 0.00 66 1003.7
20210614201129 82 203 11.0 23.0 0.00 0.00 0.00 69 1003.7
20210614200630 83 360 10.0 23.0 0.00 0.00 0.00 70 1003.7
20210614200130 83 203 7.0 15.0 0.00 0.00 0.00 71 1003.8
20210614195630 82 203 7.0 17.0 0.00 0.00 0.00 73 1003.8
20210614195128 83 360 14.0 35.0 0.00 0.00 0.00 68 1003.9
20210614194631 84 360 8.0 21.0 0.00 0.00 0.00 67 1003.9
20210614194128 83 360 6.0 15.0 0.00 0.00 0.00 73 1003.9
20210614193632 85 203 11.0 83.0 0.00 0.00 0.00 69 1004.0
20210614193130 83 360 7.0 19.0 0.00 0.00 0.00 71 1004.0
20210614192629 83 360 12.0 29.0 0.00 0.00 0.00 68 1004.0
20210614192128 83 203 6.0 13.0 0.00 0.00 0.00 71 1004.1
20210614191629 83 360 7.0 17.0 0.00 0.00 0.00 71 1004.2
20210614191131 83 360 11.0 24.0 0.00 0.00 0.00 66 1004.2
20210614190630 85 360 12.0 30.0 0.00 0.00 0.00 65 1004.4
20210614190129 84 203 16.0 34.0 0.00 0.00 0.00 67 1004.4
20210614185629 84 360 9.0 23.0 0.00 0.00 0.00 69 1004.4
20210614184628 83 360 11.0 22.0 0.00 0.00 0.00 69 1004.6
20210614184133 84 360 10.0 19.0 0.00 0.00 0.00 67 1004.7
20210614183129 84 360 16.0 31.0 0.00 0.00 0.00 66 1004.7
20210614182629 84 360 8.0 17.0 0.00 0.00 0.00 69 1004.8
20210614182130 83 203 13.0 29.0 0.00 0.00 0.00 69 1004.9
20210614181629 83 203 7.0 16.0 0.00 0.00 0.00 69 1005.0
20210614181130 84 360 10.0 22.0 0.00 0.00 0.00 69 1005.0
20210614180630 82 360 11.0 30.0 0.00 0.00 0.00 70 1005.1
20210614180131 83 360 19.0 52.0 0.00 0.00 0.00 67 1005.1
20210614175629 82 360 15.0 29.0 0.00 0.00 0.00 69 1005.2
20210614175129 80 360 9.0 17.0 0.00 0.00 0.00 71 1005.3
20210614174629 81 360 15.0 30.0 0.00 0.00 0.00 71 1005.3
20210614174130 80 360 16.0 32.0 0.00 0.00 0.00 72 1005.3
20210614173630 81 360 10.0 23.0 0.00 0.00 0.00 72 1005.3
20210614173131 80 360 12.0 33.0 0.00 0.00 0.00 74 1005.4
20210614172129 81 360 10.0 23.0 0.00 0.00 0.00 73 1005.6
20210614171630 80 360 8.0 14.0 0.00 0.00 0.00 71 1005.8
20210614171130 82 360 16.0 32.0 0.00 0.00 0.00 70 1005.9
20210614170630 81 360 15.0 29.0 0.00 0.00 0.00 71 1006.0
20210614170129 81 360 17.0 44.0 0.00 0.00 0.00 71 1006.1
20210614165628 80 360 10.0 20.0 0.00 0.00 0.00 74 1006.0
20210614165131 80 360 11.0 32.0 0.00 0.00 0.00 71 1006.1
20210614164629 79 360 8.0 14.0 0.00 0.00 0.00 74 1006.1
20210614164130 79 360 11.0 24.0 0.00 0.00 0.00 75 1006.2
20210614163629 79 360 11.0 24.0 0.00 0.00 0.00 74 1006.2
20210614163131 79 203 17.0 31.0 0.00 0.00 0.00 75 1006.2
20210614162628 78 360 10.0 30.0 0.00 0.00 0.00 76 1006.3
20210614162128 79 360 14.0 26.0 0.00 0.00 0.00 75 1006.3
20210614161630 78 203 5.0 14.0 0.00 0.00 0.00 76 1006.4
20210614161128 79 360 18.0 32.0 0.00 0.00 0.00 75 1006.4
20210614160629 79 360 10.0 27.0 0.00 0.00 0.00 76 1006.4
20210614160130 77 203 7.0 22.0 0.00 0.00 0.00 76 1006.5
20210614155629 77 360 18.0 60.0 0.00 0.00 0.00 74 1006.6
20210614155130 78 360 15.0 36.0 0.00 0.00 0.00 76 1006.5
20210614154628 77 360 11.0 26.0 0.00 0.00 0.00 78 1006.6
20210614154128 77 360 12.0 22.0 0.00 0.00 0.00 77 1006.6
20210614153628 76 360 12.0 25.0 0.00 0.00 0.00 77 1006.6
20210614153128 76 360 15.0 52.0 0.00 0.00 0.00 76 1006.7
20210614153016 77 360 10.0 38.0 0.00 0.00 0.00 76 1006.7
20210614151130 75 360 13.0 33.0 0.00 0.00 0.00 78 1006.8
20210614150630 75 203 17.0 34.0 0.00 0.00 0.00 76 1006.9
20210614150131 76 203 10.0 34.0 0.00 0.00 0.00 76 1006.9
20210614145630 76 203 11.0 20.0 0.00 0.00 0.00 76 1006.9
20210614145130 74 360 10.0 18.0 0.00 0.00 0.00 78 1006.9
20210614144633 74 360 9.0 18.0 0.00 0.00 0.00 77 1006.8
20210614144129 74 360 11.0 19.0 0.00 0.00 0.00 78 1006.8
20210614143630 75 360 10.0 30.0 0.00 0.00 0.00 79 1006.8
20210614143201 74 360 16.0 115.0 0.00 0.00 0.00 77 1006.7
20210614143129 74 360 16.0 115.0 0.00 0.00 0.00 77 1006.7
20210614142629 74 360 15.0 30.0 0.00 0.00 0.00 78 1006.7
20210614142129 75 203 13.0 33.0 0.00 0.00 0.00 77 1006.7
20210614141629 75 360 14.0 33.0 0.00 0.00 0.00 78 1006.7
20210614141131 74 360 10.0 23.0 0.00 0.00 0.00 83 1006.8
20210614141117 73 360 10.0 18.0 0.00 0.00 0.00 82 1006.8
20210614135629 72 203 7.0 17.0 0.00 0.00 0.00 83 1006.8
20210614135129 73 360 13.0 27.0 0.00 0.00 0.00 81 1006.9
20210614134629 74 203 6.0 16.0 0.00 0.00 0.00 81 1006.7
20210614134131 73 203 4.0 11.0 0.00 0.00 0.00 83 1006.9
20210614133629 73 203 9.0 21.0 0.00 0.00 0.00 84 1007.0
20210614133130 72 203 13.0 22.0 0.00 0.00 0.00 83 1006.9
20210614132628 72 203 11.0 24.0 0.00 0.00 0.00 84 1007.0
20210614132129 71 203 6.0 13.0 0.00 0.00 0.00 87 1007.1
20210614131628 71 360 10.0 21.0 0.00 0.00 0.00 87 1007.0
20210614131129 70 360 13.0 24.0 0.00 0.00 0.00 88 1006.9
20210614130628 70 203 7.0 15.0 0.00 0.00 0.00 88 1007.0
20210614130129 70 360 8.0 28.0 0.00 0.00 0.00 90 1006.9
20210614125629 70 360 10.0 21.0 0.00 0.00 0.00 90 1007.0
20210614125436 69 360 10.0 18.0 0.00 0.00 0.00 90 1007.1
20210614125431 69 360 7.0 17.0 0.00 0.00 0.00 90 1007.1
20210614123243 69 360 8.0 20.0 0.00 0.00 0.00 92 1007.0
20210614121629 69 360 11.0 21.0 0.00 0.00 0.00 92 1007.0
20210614121129 68 360 8.0 17.0 0.00 0.00 0.00 93 1007.0
20210614120630 68 360 4.0 8.0 0.00 0.00 0.00 94 1007.0
20210614120130 68 203 7.0 16.0 0.00 0.00 0.00 94 1007.0
20210614115629 68 203 8.0 15.0 0.00 0.00 0.00 95 1007.0
20210614115131 67 203 6.0 12.0 0.00 0.00 0.00 95 1007.1
20210614114629 67 360 6.0 12.0 0.00 0.00 0.00 96 1007.1
20210614114130 67 203 7.0 16.0 0.00 0.00 0.00 96 1007.2
20210614113630 67 360 7.0 15.0 0.00 0.00 0.00 96 1007.1
20210614113129 66 203 8.0 15.0 0.00 0.00 0.00 96 1007.2
20210614112130 66 360 7.0 15.0 0.00 0.00 0.00 96 1007.4
20210614111629 66 360 5.0 10.0 0.00 0.00 0.00 95 1007.4
20210614111129 67 203 3.0 7.0 0.00 0.00 0.00 95 1007.3
20210614110629 67 360 4.0 7.0 0.00 0.00 0.00 95 1007.4
20210614110131 67 203 4.0 9.0 0.00 0.00 0.00 95 1007.4
20210614105129 66 203 4.0 9.0 0.00 0.00 0.00 95 1007.4
20210614104629 66 360 5.0 8.0 0.00 0.00 0.00 95 1007.4
20210614103629 66 360 6.0 13.0 0.00 0.00 0.00 96 1007.2
20210614102630 66 360 5.0 11.0 0.00 0.00 0.00 96 1007.2
20210614102129 66 360 0.0 0.0 0.00 0.00 0.00 96 1007.3
20210614101631 65 360 1.0 3.0 0.00 0.00 0.00 96 1007.2
20210614101129 65 360 3.0 6.0 0.00 0.00 0.00 96 1007.3
20210614100629 65 360 5.0 9.0 0.00 0.00 0.00 96 1007.2
20210614095631 65 360 0.0 0.0 0.00 0.00 0.00 96 1007.4
20210614095130 65 360 1.0 3.0 0.00 0.00 0.00 96 1007.3
20210614094630 65 360 3.0 5.0 0.00 0.00 0.00 96 1007.4
20210614094130 65 360 0.0 0.0 0.00 0.00 0.00 96 1007.4
20210614093629 65 203 0.0 0.0 0.00 0.00 0.00 96 1007.4
20210614092629 65 203 0.0 0.0 0.00 0.00 0.00 96 1007.4
20210614092130 65 360 0.0 0.0 0.00 0.00 0.00 96 1007.3
20210614091712 65 360 0.0 0.0 0.00 0.00 0.00 95 1007.4
20210614091628 65 360 0.0 0.0 0.00 0.00 0.00 95 1007.4
20210614090128 65 360 3.0 5.0 0.00 0.00 0.00 93 1007.2
20210614084629 65 203 4.0 7.0 0.00 0.00 0.00 93 1007.3
20210614084133 65 360 0.0 0.0 0.00 0.00 0.00 93 1007.2
20210614083629 65 360 2.0 5.0 0.00 0.00 0.00 93 1007.1
20210614083132 65 23 5.0 9.0 0.00 0.00 0.00 92 1007.1
20210614082633 66 360 3.0 6.0 0.00 0.00 0.00 91 1007.1
20210614082131 66 360 5.0 9.0 0.00 0.00 0.00 91 1006.8
20210614081629 65 360 11.0 20.0 0.00 0.00 0.00 92 1006.9
20210614081129 65 360 9.0 15.0 0.00 0.00 0.00 92 1006.6
20210614080633 65 360 6.0 17.0 0.00 0.00 0.00 92 1005.9